Time;durP1;ratioP1;P1;durP2;ratioP2;P2;SDS_P1;SDS_P2;PMS_P1;PMS_P2;Temp;Humidity;BMP_temperature;BMP_pressure;BME280_temperature;BME280_humidity;BME280_pressure;Samples;Min_cycle;Max_cycle;Signal;HPM_P1;HPM_P2
2024/03/21 00:02:17;;;;;;;14.90;5.90;;;;;;;;;;5085217;28;20035;-51
2024/03/21 00:04:43;;;;;;;16.88;6.20;;;;;;;;;;5095928;28;20039;-51
2024/03/21 00:07:10;;;;;;;15.57;7.18;;;;;;;;;;5094735;28;20122;-51
2024/03/21 00:09:38;;;;;;;16.73;8.20;;;;;;;;;;5075276;28;20192;-51
2024/03/21 00:12:05;;;;;;;18.58;7.13;;;;;;;;;;5075725;28;20012;-54
2024/03/21 00:14:32;;;;;;;17.23;7.63;;;;;;;;;;5088609;28;20480;-54
2024/03/21 00:16:59;;;;;;;14.82;7.38;;;;;;;;;;5095433;28;20020;-52
2024/03/21 00:19:25;;;;;;;14.43;6.28;;;;;;;;;;5095346;28;20012;-51
2024/03/21 00:21:50;;;;;;;13.73;6.80;;;;;;;;;;5095468;28;20326;-52
2024/03/21 00:24:17;;;;;;;15.13;6.35;;;;;;;;;;5095514;28;20134;-51
2024/03/21 00:26:44;;;;;;;12.68;6.10;;;;;;;;;;5081497;28;20457;-51
2024/03/21 00:29:10;;;;;;;13.93;6.22;;;;;;;;;;5074891;28;20071;-52
2024/03/21 00:31:36;;;;;;;15.45;5.68;;;;;;;;;;5074847;28;20043;-52
2024/03/21 00:34:02;;;;;;;13.20;5.20;;;;;;;;;;5061645;28;20137;-51
2024/03/21 00:36:28;;;;;;;10.88;5.68;;;;;;;;;;5095071;28;20032;-52
2024/03/21 00:38:53;;;;;;;13.00;5.60;;;;;;;;;;5079381;28;20021;-51
2024/03/21 00:41:20;;;;;;;15.38;5.72;;;;;;;;;;5074696;28;20444;-51
2024/03/21 00:43:48;;;;;;;14.68;6.00;;;;;;;;;;5085054;28;20024;-51
2024/03/21 00:46:15;;;;;;;13.70;6.22;;;;;;;;;;5094960;28;20020;-51
2024/03/21 00:48:41;;;;;;;12.07;6.63;;;;;;;;;;5094893;28;20088;-51
2024/03/21 00:51:09;;;;;;;13.15;5.63;;;;;;;;;;5093978;28;20394;-52
2024/03/21 00:53:34;;;;;;;16.85;6.00;;;;;;;;;;5086748;28;20020;-53
2024/03/21 00:56:00;;;;;;;12.68;6.07;;;;;;;;;;5074454;28;20400;-52
2024/03/21 00:58:27;;;;;;;17.45;6.40;;;;;;;;;;5074458;28;20017;-51
2024/03/21 01:00:53;;;;;;;11.85;6.18;;;;;;;;;;5056722;28;20422;-51
2024/03/21 01:03:20;;;;;;;12.98;5.95;;;;;;;;;;5080063;28;20074;-53
2024/03/21 01:05:51;;;;;;;13.23;5.88;;;;;;;;;;5094901;28;20027;-50
2024/03/21 01:08:17;;;;;;;;;;;;;;;;;;5095238;28;20086;-52
2024/03/21 01:10:50;;;;;;;12.50;6.55;;;;;;;;;;5094536;28;19904;-52
2024/03/21 01:13:18;;;;;;;13.80;5.40;;;;;;;;;;5094478;28;20322;-50
2024/03/21 01:15:44;;;;;;;12.55;5.40;;;;;;;;;;5092691;28;20459;-52
2024/03/21 01:18:11;;;;;;;13.80;6.05;;;;;;;;;;5081190;28;20020;-50
2024/03/21 01:20:42;;;;;;;14.48;6.32;;;;;;;;;;5074221;28;20439;-50
2024/03/21 01:23:08;;;;;;;14.85;6.82;;;;;;;;;;5074210;28;20032;-51
2024/03/21 01:25:36;;;;;;;15.68;7.00;;;;;;;;;;5074353;28;20039;-52
2024/03/21 01:28:02;;;;;;;16.23;6.20;;;;;;;;;;5075179;28;20028;-51
2024/03/21 01:30:31;;;;;;;14.38;6.95;;;;;;;;;;5074037;28;20024;-52
2024/03/21 01:32:57;;;;;;;17.15;6.85;;;;;;;;;;5073675;28;20083;-51
2024/03/21 01:35:24;;;;;;;15.23;6.65;;;;;;;;;;5073969;28;20048;-50
2024/03/21 01:37:50;;;;;;;15.23;7.15;;;;;;;;;;5074126;28;20028;-51
2024/03/21 01:40:16;;;;;;;14.82;6.47;;;;;;;;;;5085061;28;20341;-52
2024/03/21 01:42:44;;;;;;;15.48;6.90;;;;;;;;;;5094153;28;20085;-53
2024/03/21 01:45:10;;;;;;;13.73;6.15;;;;;;;;;;5076301;28;20027;-51
2024/03/21 01:47:37;;;;;;;16.48;6.43;;;;;;;;;;5094352;28;20061;-51
2024/03/21 01:50:06;;;;;;;15.90;6.80;;;;;;;;;;5076356;28;20077;-51
2024/03/21 01:52:33;;;;;;;16.80;6.47;;;;;;;;;;5078961;28;20031;-53
2024/03/21 01:54:59;;;;;;;14.30;6.78;;;;;;;;;;5056915;28;20025;-52
2024/03/21 01:57:26;;;;;;;14.10;5.95;;;;;;;;;;5094053;28;20023;-51
2024/03/21 01:59:56;;;;;;;15.88;6.30;;;;;;;;;;5094057;28;20048;-51
2024/03/21 02:02:23;;;;;;;15.77;6.60;;;;;;;;;;5096129;28;20099;-51
2024/03/21 02:04:49;;;;;;;14.45;6.63;;;;;;;;;;5079625;28;20021;-51
2024/03/21 02:07:18;;;;;;;15.77;6.65;;;;;;;;;;5077634;28;20138;-51
2024/03/21 02:09:49;;;;;;;13.35;6.75;;;;;;;;;;5077546;28;20032;-52
2024/03/21 02:12:37;;;;;;;15.90;7.00;;;;;;;;;;5087831;28;20028;-50
2024/03/21 02:15:13;;;;;;;14.13;7.32;;;;;;;;;;5096746;28;20039;-53
2024/03/21 02:17:40;;;;;;;12.07;6.72;;;;;;;;;;5077717;28;20024;-51
2024/03/21 02:20:09;;;;;;;12.88;6.57;;;;;;;;;;5077373;28;20028;-52
2024/03/21 02:22:35;;;;;;;13.48;6.93;;;;;;;;;;5077312;28;20430;-51
2024/03/21 02:25:04;;;;;;;17.48;7.38;;;;;;;;;;5095409;28;20081;-51
2024/03/21 02:27:31;;;;;;;16.40;7.43;;;;;;;;;;5094303;28;20051;-51
2024/03/21 02:29:57;;;;;;;17.13;7.57;;;;;;;;;;5077193;28;20083;-52
2024/03/21 02:32:24;;;;;;;18.50;8.75;;;;;;;;;;5077183;28;20013;-51
2024/03/21 02:34:50;;;;;;;12.57;7.45;;;;;;;;;;5077114;28;20517;-52
2024/03/21 02:37:16;;;;;;;14.65;7.40;;;;;;;;;;5091176;28;20062;-52
2024/03/21 02:39:46;;;;;;;16.25;7.22;;;;;;;;;;5092558;28;20107;-51
2024/03/21 02:42:13;;;;;;;15.50;7.30;;;;;;;;;;5076821;28;20038;-51
2024/03/21 02:44:40;;;;;;;20.40;7.97;;;;;;;;;;5092776;28;20080;-51
2024/03/21 02:47:06;;;;;;;15.77;7.80;;;;;;;;;;5097080;28;20020;-51
2024/03/21 02:49:33;;;;;;;15.80;8.40;;;;;;;;;;5097415;28;20341;-51
2024/03/21 02:51:59;;;;;;;14.35;8.75;;;;;;;;;;5086674;28;20008;-52
2024/03/21 02:54:26;;;;;;;21.25;9.18;;;;;;;;;;5088342;28;20479;-51
2024/03/21 02:56:52;;;;;;;14.90;9.25;;;;;;;;;;5096952;28;20460;-51
2024/03/21 02:59:19;;;;;;;15.63;10.43;;;;;;;;;;5096716;28;20023;-52
2024/03/21 03:01:45;;;;;;;18.90;10.70;;;;;;;;;;5112125;22;20169;-88
2024/03/21 03:04:12;;;;;;;20.25;11.80;;;;;;;;;;5096472;28;20361;-88
2024/03/21 03:06:38;;;;;;;18.02;10.88;;;;;;;;;;5097561;28;20066;-88
2024/03/21 03:09:04;;;;;;;19.75;11.35;;;;;;;;;;5079821;28;20389;-88
2024/03/21 03:11:29;;;;;;;21.65;11.45;;;;;;;;;;5097686;28;20012;-88
2024/03/21 03:13:56;;;;;;;17.95;11.82;;;;;;;;;;5078140;28;20024;-88
2024/03/21 03:16:21;;;;;;;20.90;11.90;;;;;;;;;;5113493;28;20020;-88
2024/03/21 03:18:46;;;;;;;19.58;11.80;;;;;;;;;;5096793;28;20044;-88
2024/03/21 03:21:12;;;;;;;20.40;12.18;;;;;;;;;;5097474;28;20027;-88
2024/03/21 03:23:37;;;;;;;17.33;11.95;;;;;;;;;;5096624;28;20018;-88
2024/03/21 03:26:02;;;;;;;19.90;11.65;;;;;;;;;;5097212;28;20425;-89
2024/03/21 03:28:28;;;;;;;19.42;11.88;;;;;;;;;;5112929;28;20318;-89
2024/03/21 03:30:54;;;;;;;18.58;11.63;;;;;;;;;;5113830;28;20322;-88
2024/03/21 03:36:03;;;;;;;18.42;11.40;;;;;;;;;;5090463;28;20090;-88
2024/03/21 03:38:29;;;;;;;23.23;12.48;;;;;;;;;;5059141;28;20021;-88
2024/03/21 03:40:54;;;;;;;16.42;11.68;;;;;;;;;;5076715;28;20416;-88
2024/03/21 03:43:19;;;;;;;19.80;11.40;;;;;;;;;;5059134;28;20107;-88
2024/03/21 03:45:44;;;;;;;16.80;10.55;;;;;;;;;;5059283;28;20052;-88
2024/03/21 03:48:09;;;;;;;20.95;11.48;;;;;;;;;;5071522;28;20467;-88
2024/03/21 03:50:35;;;;;;;15.23;11.57;;;;;;;;;;5097016;28;20345;-89
2024/03/21 03:53:00;;;;;;;16.48;11.35;;;;;;;;;;5096537;28;20079;-88
2024/03/21 03:55:26;;;;;;;20.90;12.32;;;;;;;;;;5096603;28;20016;-88
2024/03/21 03:57:52;;;;;;;19.02;12.57;;;;;;;;;;5105020;28;20028;-89
2024/03/21 04:00:17;;;;;;;17.35;11.57;;;;;;;;;;5096596;28;20448;-89
2024/03/21 04:02:44;;;;;;;19.90;11.38;;;;;;;;;;5074124;22;20063;-51
2024/03/21 04:05:10;;;;;;;20.25;12.50;;;;;;;;;;5075622;28;20145;-52
2024/03/21 04:07:37;;;;;;;18.65;11.98;;;;;;;;;;5075295;28;20078;-51
2024/03/21 04:10:05;;;;;;;23.52;12.68;;;;;;;;;;5086270;28;20043;-52
2024/03/21 04:12:30;;;;;;;17.35;11.57;;;;;;;;;;5096023;28;20364;-51
2024/03/21 04:14:55;;;;;;;18.63;12.20;;;;;;;;;;5092379;28;20021;-51
2024/03/21 04:17:21;;;;;;;20.30;12.73;;;;;;;;;;5075202;28;20406;-51
2024/03/21 04:19:46;;;;;;;20.58;12.93;;;;;;;;;;5075162;28;20475;-51
2024/03/21 04:22:11;;;;;;;23.42;12.75;;;;;;;;;;5089000;28;20028;-51
2024/03/21 04:24:41;;;;;;;30.35;20.65;;;;;;;;;;5089512;28;20034;-54
2024/03/21 04:27:07;;;;;;;29.70;22.00;;;;;;;;;;5078383;28;20020;-51
2024/03/21 04:29:32;;;;;;;28.17;23.25;;;;;;;;;;5095731;28;20532;-52
2024/03/21 04:31:57;;;;;;;27.38;21.92;;;;;;;;;;5095633;28;20098;-51
2024/03/21 04:34:23;;;;;;;33.00;23.08;;;;;;;;;;5068805;28;20016;-51
2024/03/21 04:36:48;;;;;;;32.00;23.65;;;;;;;;;;5075430;28;20090;-50
2024/03/21 04:39:13;;;;;;;34.50;23.52;;;;;;;;;;5075406;28;20016;-51
2024/03/21 04:41:38;;;;;;;37.28;25.88;;;;;;;;;;5075353;28;20449;-51
2024/03/21 04:44:04;;;;;;;31.92;24.77;;;;;;;;;;5075502;28;20111;-52
2024/03/21 04:46:29;;;;;;;33.63;25.30;;;;;;;;;;5095152;28;20115;-51
2024/03/21 04:48:54;;;;;;;31.30;25.17;;;;;;;;;;5095438;28;20069;-51
2024/03/21 04:51:20;;;;;;;33.90;26.58;;;;;;;;;;5095448;28;20028;-50
2024/03/21 04:53:45;;;;;;;37.70;28.17;;;;;;;;;;5089543;28;20112;-52
2024/03/21 04:56:10;;;;;;;40.90;27.92;;;;;;;;;;5075077;28;20103;-52
2024/03/21 04:58:35;;;;;;;42.05;30.27;;;;;;;;;;5075362;28;20112;-51
2024/03/21 05:01:05;;;;;;;36.28;28.80;;;;;;;;;;5075043;28;20028;-51
2024/03/21 05:03:31;;;;;;;38.50;28.23;;;;;;;;;;5061254;28;20035;-51
2024/03/21 05:05:57;;;;;;;34.08;26.63;;;;;;;;;;5076848;28;20024;-53
2024/03/21 05:08:24;;;;;;;32.63;27.15;;;;;;;;;;5095097;28;20188;-51
2024/03/21 05:10:51;;;;;;;36.25;26.88;;;;;;;;;;5084946;28;20028;-54
2024/03/21 05:13:18;;;;;;;32.38;26.92;;;;;;;;;;5074880;28;20026;-51
2024/03/21 05:15:48;;;;;;;36.47;26.90;;;;;;;;;;5081459;28;20024;-54
2024/03/21 05:18:14;;;;;;;37.83;28.10;;;;;;;;;;5095304;28;20024;-52
2024/03/21 05:20:41;;;;;;;36.03;27.95;;;;;;;;;;5095331;28;20024;-51
2024/03/21 05:23:07;;;;;;;37.33;28.63;;;;;;;;;;5094800;28;20024;-51
2024/03/21 05:25:37;;;;;;;38.55;27.48;;;;;;;;;;5072493;28;20040;-55
2024/03/21 05:28:04;;;;;;;35.70;27.48;;;;;;;;;;5056999;28;20031;-51
2024/03/21 05:30:31;;;;;;;33.30;27.33;;;;;;;;;;5074806;28;20057;-51
2024/03/21 05:32:57;;;;;;;35.60;27.48;;;;;;;;;;5074751;28;20017;-52
2024/03/21 05:35:23;;;;;;;37.95;29.15;;;;;;;;;;5075882;28;20016;-52
2024/03/21 05:37:49;;;;;;;35.58;28.02;;;;;;;;;;5077689;28;20033;-50
2024/03/21 05:40:16;;;;;;;39.00;29.52;;;;;;;;;;5061236;28;20352;-51
2024/03/21 05:42:43;;;;;;;36.92;29.00;;;;;;;;;;5078897;28;20077;-51
2024/03/21 05:45:09;;;;;;;40.50;28.13;;;;;;;;;;5091440;28;20507;-51
2024/03/21 05:47:35;;;;;;;38.72;27.92;;;;;;;;;;5098854;28;20028;-52
2024/03/21 05:50:02;;;;;;;37.33;27.40;;;;;;;;;;5098963;28;20031;-51
2024/03/21 05:52:28;;;;;;;38.72;27.33;;;;;;;;;;5098880;28;20024;-51
2024/03/21 05:54:54;;;;;;;35.70;27.05;;;;;;;;;;5087740;28;20107;-51
2024/03/21 05:57:22;;;;;;;38.97;27.38;;;;;;;;;;5078545;28;20052;-51
2024/03/21 05:59:52;;;;;;;39.63;26.58;;;;;;;;;;5078472;28;20024;-53
2024/03/21 06:02:19;;;;;;;40.78;27.73;;;;;;;;;;5078497;28;20035;-53
2024/03/21 06:04:46;;;;;;;46.20;28.10;;;;;;;;;;5070036;28;20119;-51
2024/03/21 06:07:13;;;;;;;44.33;29.05;;;;;;;;;;5080670;28;20024;-52
2024/03/21 06:09:39;;;;;;;38.80;27.75;;;;;;;;;;5098563;28;20008;-51
2024/03/21 06:12:06;;;;;;;41.17;26.80;;;;;;;;;;5097924;28;20310;-52
2024/03/21 06:14:33;;;;;;;39.78;28.10;;;;;;;;;;5098505;28;20028;-53
2024/03/21 06:16:59;;;;;;;40.63;27.95;;;;;;;;;;5089021;28;20024;-52
2024/03/21 06:19:26;;;;;;;39.50;27.98;;;;;;;;;;5078318;28;20453;-53
2024/03/21 06:21:54;;;;;;;35.65;26.90;;;;;;;;;;5078015;28;20126;-51
2024/03/21 06:24:21;;;;;;;36.42;26.17;;;;;;;;;;5077941;28;20437;-52
2024/03/21 06:26:47;;;;;;;35.75;26.10;;;;;;;;;;5084360;28;20020;-51
2024/03/21 06:29:14;;;;;;;38.95;27.75;;;;;;;;;;5096346;28;20068;-52
2024/03/21 06:31:40;;;;;;;33.63;26.02;;;;;;;;;;5098151;28;20088;-51
2024/03/21 06:34:07;;;;;;;36.72;27.17;;;;;;;;;;5098136;28;20099;-53
2024/03/21 06:36:34;;;;;;;36.67;27.70;;;;;;;;;;5098116;28;20116;-51
2024/03/21 06:39:00;;;;;;;35.58;26.17;;;;;;;;;;5098102;28;20016;-51
2024/03/21 06:41:26;;;;;;;33.97;27.05;;;;;;;;;;5097915;28;20092;-52
2024/03/21 06:43:53;;;;;;;39.25;27.42;;;;;;;;;;5097944;28;20402;-51
2024/03/21 06:46:20;;;;;;;35.03;26.65;;;;;;;;;;5098143;28;20020;-51
2024/03/21 06:48:46;;;;;;;40.92;29.45;;;;;;;;;;5097671;28;20019;-55
2024/03/21 06:51:13;;;;;;;36.22;27.25;;;;;;;;;;5097883;28;20348;-55
2024/03/21 06:53:39;;;;;;;42.67;29.95;;;;;;;;;;5097716;28;20344;-54
2024/03/21 06:56:06;;;;;;;46.22;30.88;;;;;;;;;;5096771;28;20015;-52
2024/03/21 06:58:35;;;;;;;43.65;32.95;;;;;;;;;;5097900;28;20032;-52
2024/03/21 07:01:00;;;;;;;45.67;31.95;;;;;;;;;;5097738;28;20032;-52
2024/03/21 07:03:27;;;;;;;43.42;33.67;;;;;;;;;;5097507;28;20111;-54
2024/03/21 07:05:53;;;;;;;49.03;34.47;;;;;;;;;;5097598;28;20119;-53
2024/03/21 07:08:18;;;;;;;41.40;31.13;;;;;;;;;;5097813;28;20036;-51
2024/03/21 07:10:45;;;;;;;43.17;30.83;;;;;;;;;;5097567;28;20081;-52
2024/03/21 07:13:10;;;;;;;34.97;28.48;;;;;;;;;;5097801;28;20016;-52
2024/03/21 07:15:45;;;;;;;37.67;28.02;;;;;;;;;;5097188;28;20498;-54
2024/03/21 07:18:12;;;;;;;35.20;26.70;;;;;;;;;;5097585;28;20013;-51
2024/03/21 07:20:39;;;;;;;37.13;27.45;;;;;;;;;;5097232;28;20024;-51
2024/03/21 07:23:06;;;;;;;39.75;27.02;;;;;;;;;;5097964;28;20100;-52
2024/03/21 07:25:34;;;;;;;40.40;29.00;;;;;;;;;;5097184;28;20020;-55
2024/03/21 07:28:01;;;;;;;45.05;37.20;;;;;;;;;;5097255;28;20027;-54
2024/03/21 07:30:29;;;;;;;40.75;32.58;;;;;;;;;;5097302;28;20095;-52
2024/03/21 07:32:55;;;;;;;31.73;27.55;;;;;;;;;;5097158;28;20044;-53
2024/03/21 07:35:22;;;;;;;33.40;24.58;;;;;;;;;;5079045;28;20020;-52
2024/03/21 07:37:50;;;;;;;28.80;20.85;;;;;;;;;;5096906;28;20020;-52
2024/03/21 07:40:16;;;;;;;26.88;21.27;;;;;;;;;;5079047;28;20031;-52
2024/03/21 07:42:43;;;;;;;27.95;19.63;;;;;;;;;;5096795;28;20016;-51
2024/03/21 07:45:10;;;;;;;22.75;18.63;;;;;;;;;;5096766;28;20020;-53
2024/03/21 07:47:38;;;;;;;22.75;18.63;;;;;;;;;;5096607;28;20043;-51
2024/03/21 07:50:04;;;;;;;25.95;18.92;;;;;;;;;;5096741;28;20024;-52
2024/03/21 07:52:30;;;;;;;30.13;19.90;;;;;;;;;;5096596;28;20069;-51
2024/03/21 07:54:57;;;;;;;27.67;18.42;;;;;;;;;;5095877;28;20035;-51
2024/03/21 07:57:23;;;;;;;25.10;17.67;;;;;;;;;;5096733;28;20028;-51
2024/03/21 07:59:50;;;;;;;28.63;17.90;;;;;;;;;;5095955;28;20081;-52
2024/03/21 08:02:18;;;;;;;22.73;17.35;;;;;;;;;;5095116;28;20028;-53
2024/03/21 08:04:44;;;;;;;20.38;16.85;;;;;;;;;;5095541;28;20096;-51
2024/03/21 08:07:11;;;;;;;21.20;16.88;;;;;;;;;;5096484;28;20036;-55
2024/03/21 08:09:37;;;;;;;19.60;15.90;;;;;;;;;;5096266;28;20034;-51
2024/03/21 08:12:04;;;;;;;19.35;15.77;;;;;;;;;;5096551;28;20012;-53
2024/03/21 08:14:31;;;;;;;19.90;15.15;;;;;;;;;;5096093;28;20107;-52
2024/03/21 08:16:57;;;;;;;17.60;15.25;;;;;;;;;;5096084;28;20119;-52
2024/03/21 08:19:23;;;;;;;16.77;13.77;;;;;;;;;;5096299;28;20093;-51
2024/03/21 08:21:50;;;;;;;20.55;13.50;;;;;;;;;;5096394;28;20081;-52
2024/03/21 08:24:18;;;;;;;17.60;13.35;;;;;;;;;;5095988;28;20024;-51
2024/03/21 08:26:45;;;;;;;16.67;12.88;;;;;;;;;;5095926;28;20028;-52
2024/03/21 08:29:11;;;;;;;15.85;12.35;;;;;;;;;;5095918;28;20059;-52
2024/03/21 08:31:37;;;;;;;17.25;14.38;;;;;;;;;;5095845;28;20027;-53
2024/03/21 08:34:04;;;;;;;21.42;14.65;;;;;;;;;;5095826;28;20089;-53
2024/03/21 08:36:30;;;;;;;20.52;14.77;;;;;;;;;;5095882;28;20020;-55
2024/03/21 08:38:56;;;;;;;25.05;13.90;;;;;;;;;;5095949;28;20429;-53
2024/03/21 08:41:25;;;;;;;12.82;10.15;;;;;;;;;;5095979;28;20027;-53
2024/03/21 08:43:51;;;;;;;15.32;10.75;;;;;;;;;;5095919;28;20036;-53
2024/03/21 08:46:18;;;;;;;16.73;11.07;;;;;;;;;;5095649;28;20032;-53
2024/03/21 08:48:44;;;;;;;19.33;13.18;;;;;;;;;;5095582;28;20039;-51
2024/03/21 08:51:11;;;;;;;21.70;15.32;;;;;;;;;;5095574;28;20095;-51
2024/03/21 08:53:37;;;;;;;17.88;14.82;;;;;;;;;;5096061;28;20074;-51
2024/03/21 08:56:04;;;;;;;16.50;12.45;;;;;;;;;;5095485;28;20027;-52
2024/03/21 08:58:31;;;;;;;18.40;13.13;;;;;;;;;;5095413;28;20023;-51
2024/03/21 09:00:57;;;;;;;17.50;15.02;;;;;;;;;;5095646;28;20413;-51
2024/03/21 09:03:25;;;;;;;17.05;13.77;;;;;;;;;;5094115;28;20076;-55
2024/03/21 09:05:52;;;;;;;13.90;11.25;;;;;;;;;;5095308;28;20429;-55
2024/03/21 09:08:18;;;;;;;11.40;9.48;;;;;;;;;;5095442;28;20389;-54
2024/03/21 09:10:45;;;;;;;16.55;8.68;;;;;;;;;;5094766;28;20057;-56
2024/03/21 09:13:11;;;;;;;10.15;8.57;;;;;;;;;;5077088;28;20055;-52
2024/03/21 09:15:39;;;;;;;11.73;9.75;;;;;;;;;;5095111;28;20356;-53
2024/03/21 09:18:06;;;;;;;14.82;11.85;;;;;;;;;;5095006;28;20028;-53
2024/03/21 09:20:32;;;;;;;15.32;10.80;;;;;;;;;;5095118;28;20027;-55
2024/03/21 09:22:59;;;;;;;11.85;8.52;;;;;;;;;;5095356;28;20019;-55
2024/03/21 09:25:25;;;;;;;12.23;8.68;;;;;;;;;;5095039;28;20106;-52
2024/03/21 09:27:51;;;;;;;11.55;7.63;;;;;;;;;;5095015;28;20023;-53
2024/03/21 09:30:18;;;;;;;16.25;8.77;;;;;;;;;;5095244;28;20027;-53
2024/03/21 09:32:45;;;;;;;11.25;8.18;;;;;;;;;;5094964;28;20020;-52
2024/03/21 09:35:11;;;;;;;13.60;10.52;;;;;;;;;;5077191;28;20050;-52
2024/03/21 09:37:37;;;;;;;13.00;10.32;;;;;;;;;;5094991;28;20043;-52
2024/03/21 09:40:05;;;;;;;16.48;10.77;;;;;;;;;;5094895;28;20024;-53
2024/03/21 09:42:32;;;;;;;14.65;10.63;;;;;;;;;;5095121;28;20050;-55
2024/03/21 09:45:01;;;;;;;17.27;11.30;;;;;;;;;;5094912;28;20024;-52
2024/03/21 09:47:27;;;;;;;17.27;10.85;;;;;;;;;;5094780;28;20034;-53
2024/03/21 09:49:54;;;;;;;15.48;9.93;;;;;;;;;;5094837;28;20020;-52
2024/03/21 09:52:21;;;;;;;21.02;8.50;;;;;;;;;;5094826;28;20444;-53
2024/03/21 09:54:48;;;;;;;11.65;5.55;;;;;;;;;;5095051;28;20024;-53
2024/03/21 09:57:15;;;;;;;9.85;5.38;;;;;;;;;;5094732;28;20020;-53
2024/03/21 09:59:41;;;;;;;8.25;6.85;;;;;;;;;;5094783;28;20020;-53
2024/03/21 10:02:12;;;;;;;12.10;10.48;;;;;;;;;;5094167;28;20020;-53
2024/03/21 10:04:39;;;;;;;;;;;;;;;;;;5095169;28;20035;-55
2024/03/21 10:07:15;;;;;;;10.15;8.88;;;;;;;;;;5094761;28;19961;-52
2024/03/21 10:09:41;;;;;;;10.95;7.05;;;;;;;;;;5094725;28;20051;-55
2024/03/21 10:12:08;;;;;;;8.70;7.15;;;;;;;;;;5094908;28;20095;-54
2024/03/21 10:14:34;;;;;;;8.95;7.50;;;;;;;;;;5094636;28;20081;-53
2024/03/21 10:17:03;;;;;;;12.98;6.88;;;;;;;;;;5094631;28;20043;-56
2024/03/21 10:19:30;;;;;;;11.02;5.93;;;;;;;;;;5094624;28;20396;-52
2024/03/21 10:21:56;;;;;;;8.88;6.55;;;;;;;;;;5094579;28;20026;-56
2024/03/21 10:24:23;;;;;;;8.77;7.05;;;;;;;;;;5098148;28;20044;-55
2024/03/21 10:26:49;;;;;;;8.70;7.03;;;;;;;;;;5098484;28;20349;-52
2024/03/21 10:29:16;;;;;;;7.82;6.40;;;;;;;;;;5098513;28;20097;-55
2024/03/21 10:31:44;;;;;;;8.43;5.05;;;;;;;;;;5098199;28;20020;-55
2024/03/21 10:34:11;;;;;;;8.10;3.63;;;;;;;;;;5098116;28;20023;-52
2024/03/21 10:36:37;;;;;;;8.73;4.60;;;;;;;;;;5098199;28;20055;-53
2024/03/21 10:39:04;;;;;;;7.82;4.57;;;;;;;;;;5098094;28;20028;-54
2024/03/21 10:41:32;;;;;;;7.60;4.18;;;;;;;;;;5098025;28;20103;-54
2024/03/21 10:43:58;;;;;;;7.68;4.68;;;;;;;;;;5097966;28;20028;-53
2024/03/21 10:46:27;;;;;;;9.45;5.60;;;;;;;;;;5097790;28;20040;-52
2024/03/21 10:48:55;;;;;;;9.02;5.40;;;;;;;;;;5097958;28;20077;-52
2024/03/21 10:51:22;;;;;;;9.07;5.03;;;;;;;;;;5098098;28;20020;-52
2024/03/21 10:53:57;;;;;;;6.55;4.13;;;;;;;;;;5097801;28;20024;-51
2024/03/21 10:56:41;;;;;;;14.82;4.68;;;;;;;;;;5097738;28;20030;-52
2024/03/21 10:59:16;;;;;;;11.98;5.03;;;;;;;;;;5097629;28;20016;-52
2024/03/21 11:01:44;;;;;;;9.27;4.35;;;;;;;;;;5096733;28;20107;-53
2024/03/21 11:04:18;;;;;;;9.43;4.10;;;;;;;;;;5097200;28;20030;-55
2024/03/21 11:06:47;;;;;;;8.63;3.90;;;;;;;;;;5097494;28;20023;-51
2024/03/21 11:09:13;;;;;;;7.72;4.35;;;;;;;;;;5097682;28;20489;-52
2024/03/21 11:11:39;;;;;;;9.77;4.38;;;;;;;;;;5097492;28;20107;-51
2024/03/21 11:14:07;;;;;;;8.82;4.32;;;;;;;;;;5097625;28;20456;-53
2024/03/21 11:16:32;;;;;;;11.68;4.80;;;;;;;;;;5098065;28;20429;-52
2024/03/21 11:18:59;;;;;;;8.52;4.53;;;;;;;;;;5097111;28;20032;-51
2024/03/21 11:21:25;;;;;;;10.40;4.40;;;;;;;;;;5097218;28;20024;-52
2024/03/21 11:23:52;;;;;;;7.40;4.53;;;;;;;;;;5097183;28;20020;-52
2024/03/21 11:26:18;;;;;;;8.18;4.50;;;;;;;;;;5097147;28;20437;-54
2024/03/21 11:28:45;;;;;;;6.43;4.55;;;;;;;;;;5096958;28;20107;-52
2024/03/21 11:31:18;;;;;;;7.40;4.30;;;;;;;;;;5097528;28;20345;-52
2024/03/21 11:33:43;;;;;;;5.88;3.95;;;;;;;;;;5096509;28;20042;-52
2024/03/21 11:36:10;;;;;;;7.05;4.18;;;;;;;;;;5096491;28;20448;-51
2024/03/21 11:38:36;;;;;;;11.95;3.80;;;;;;;;;;5096873;28;20444;-55
2024/03/21 11:41:04;;;;;;;8.55;3.67;;;;;;;;;;5079057;28;20322;-52
2024/03/21 11:43:30;;;;;;;10.07;4.70;;;;;;;;;;5096815;28;20102;-54
2024/03/21 11:45:57;;;;;;;7.82;3.90;;;;;;;;;;5096994;28;20052;-52
2024/03/21 11:48:26;;;;;;;6.18;3.75;;;;;;;;;;5096656;28;20028;-52
2024/03/21 11:50:53;;;;;;;8.27;3.92;;;;;;;;;;5096665;28;20016;-55
2024/03/21 11:53:20;;;;;;;10.48;4.63;;;;;;;;;;5096900;28;20024;-52
2024/03/21 11:55:46;;;;;;;7.95;3.80;;;;;;;;;;5096539;28;20020;-52
2024/03/21 11:58:13;;;;;;;7.55;3.92;;;;;;;;;;5078727;28;20407;-53
2024/03/21 12:00:40;;;;;;;8.38;3.85;;;;;;;;;;5096387;28;20016;-52
2024/03/21 12:03:07;;;;;;;9.02;3.65;;;;;;;;;;5095539;28;20023;-52
2024/03/21 12:05:33;;;;;;;6.10;3.65;;;;;;;;;;5096374;28;20360;-53
2024/03/21 12:07:59;;;;;;;6.03;3.70;;;;;;;;;;5096264;28;20046;-53
2024/03/21 12:10:26;;;;;;;8.43;3.75;;;;;;;;;;5096356;28;20488;-52
2024/03/21 12:12:52;;;;;;;8.25;3.47;;;;;;;;;;5096249;28;20107;-52
2024/03/21 12:15:18;;;;;;;7.70;3.20;;;;;;;;;;5096435;28;20027;-52
2024/03/21 12:17:43;;;;;;;8.25;3.15;;;;;;;;;;5096059;28;20031;-52
2024/03/21 12:20:09;;;;;;;5.18;2.90;;;;;;;;;;5096088;28;20040;-51
2024/03/21 12:22:36;;;;;;;6.57;3.05;;;;;;;;;;5096091;28;20448;-52
2024/03/21 12:25:01;;;;;;;8.05;3.15;;;;;;;;;;5096029;28;20414;-53
2024/03/21 12:27:28;;;;;;;10.23;3.03;;;;;;;;;;5095930;28;20043;-51
2024/03/21 12:29:55;;;;;;;7.40;2.95;;;;;;;;;;5095908;28;20099;-51
2024/03/21 12:32:21;;;;;;;5.97;2.80;;;;;;;;;;5096133;28;20030;-53
2024/03/21 12:34:46;;;;;;;6.78;2.97;;;;;;;;;;5095835;28;20063;-51
2024/03/21 12:37:12;;;;;;;5.60;3.08;;;;;;;;;;5095824;28;20047;-52
2024/03/21 12:39:39;;;;;;;7.13;3.53;;;;;;;;;;5096087;28;20032;-52
2024/03/21 12:42:10;;;;;;;8.27;3.47;;;;;;;;;;5095727;28;20093;-52
2024/03/21 12:44:36;;;;;;;5.18;2.78;;;;;;;;;;5095637;28;20032;-53
2024/03/21 12:47:03;;;;;;;7.47;2.92;;;;;;;;;;5095783;28;20449;-53
2024/03/21 12:49:28;;;;;;;7.13;2.88;;;;;;;;;;5095659;28;20449;-53
2024/03/21 12:51:55;;;;;;;4.80;2.53;;;;;;;;;;5095551;28;20018;-52
2024/03/21 12:54:22;;;;;;;6.22;2.53;;;;;;;;;;5095523;28;20051;-53
2024/03/21 12:56:48;;;;;;;8.65;2.60;;;;;;;;;;5095451;28;20027;-52
2024/03/21 12:59:14;;;;;;;8.57;5.28;;;;;;;;;;5095384;28;20439;-52
2024/03/21 13:01:41;;;;;;;7.15;2.85;;;;;;;;;;5094606;28;20012;-52
2024/03/21 13:04:07;;;;;;;8.43;4.32;;;;;;;;;;5094564;28;20031;-53
2024/03/21 13:06:32;;;;;;;6.57;2.70;;;;;;;;;;5095987;28;20024;-52
2024/03/21 13:08:59;;;;;;;5.57;2.08;;;;;;;;;;5095185;28;20031;-52
2024/03/21 13:11:29;;;;;;;5.60;2.40;;;;;;;;;;5077761;28;20352;-52
2024/03/21 13:13:55;;;;;;;9.23;2.80;;;;;;;;;;5095243;28;20027;-52
2024/03/21 13:16:21;;;;;;;4.63;2.70;;;;;;;;;;5095351;28;20019;-52
2024/03/21 13:18:46;;;;;;;7.25;2.53;;;;;;;;;;5095350;28;20507;-55
2024/03/21 13:21:13;;;;;;;7.78;2.92;;;;;;;;;;5095343;28;20051;-55
2024/03/21 13:23:39;;;;;;;6.85;2.55;;;;;;;;;;5095049;28;20035;-52
2024/03/21 13:26:06;;;;;;;12.32;2.80;;;;;;;;;;5095075;28;20024;-52
2024/03/21 13:28:32;;;;;;;7.30;2.72;;;;;;;;;;5095209;28;20020;-53
2024/03/21 13:30:59;;;;;;;5.75;2.28;;;;;;;;;;5094994;28;20023;-54
2024/03/21 13:33:26;;;;;;;6.95;2.65;;;;;;;;;;5094971;28;20012;-54
2024/03/21 13:35:51;;;;;;;6.72;3.15;;;;;;;;;;5095270;28;20016;-53
2024/03/21 13:38:17;;;;;;;6.55;2.88;;;;;;;;;;5095224;28;20031;-53
2024/03/21 13:40:44;;;;;;;10.02;3.00;;;;;;;;;;5094909;28;20456;-53
2024/03/21 13:43:10;;;;;;;6.32;3.05;;;;;;;;;;5094864;28;20032;-53
2024/03/21 13:45:41;;;;;;;6.30;2.50;;;;;;;;;;5094882;28;20020;-53
2024/03/21 13:48:08;;;;;;;8.10;2.72;;;;;;;;;;5094788;28;20016;-55
2024/03/21 13:50:34;;;;;;;8.30;3.22;;;;;;;;;;5095006;28;20441;-53
2024/03/21 13:53:01;;;;;;;8.63;2.80;;;;;;;;;;5094788;28;20103;-52
2024/03/21 13:55:27;;;;;;;8.55;2.40;;;;;;;;;;5094790;28;20016;-54
2024/03/21 13:57:54;;;;;;;7.05;2.20;;;;;;;;;;5096132;28;20111;-52
2024/03/21 14:00:28;;;;;;;9.23;2.42;;;;;;;;;;5098543;28;20020;-52
2024/03/21 14:02:55;;;;;;;5.03;1.95;;;;;;;;;;5098705;28;20032;-52
2024/03/21 14:05:25;;;;;;;10.40;2.15;;;;;;;;;;5098725;28;20034;-53
2024/03/21 14:07:52;;;;;;;10.07;2.60;;;;;;;;;;5098598;28;20020;-51
2024/03/21 14:10:19;;;;;;;8.52;2.20;;;;;;;;;;5080677;28;20027;-53
2024/03/21 14:12:46;;;;;;;6.60;2.30;;;;;;;;;;5098578;28;20048;-52
2024/03/21 14:15:12;;;;;;;7.80;2.40;;;;;;;;;;5098773;28;20026;-53
2024/03/21 14:17:41;;;;;;;8.15;2.15;;;;;;;;;;5080632;28;20047;-53
2024/03/21 14:20:08;;;;;;;6.07;1.92;;;;;;;;;;5098525;28;20048;-53
2024/03/21 14:22:35;;;;;;;8.43;2.58;;;;;;;;;;5080502;28;20116;-52
2024/03/21 14:25:02;;;;;;;6.10;1.90;;;;;;;;;;5098413;28;20023;-51
2024/03/21 14:27:32;;;;;;;9.55;2.20;;;;;;;;;;5098449;28;20345;-53
2024/03/21 14:29:59;;;;;;;8.30;2.10;;;;;;;;;;5098520;28;20043;-54